Terminal Aerodrome Forecast
Issued by NWS

Home | Current Version | Previous Version | Graphics & Text | Print | Product List | Glossary On
Versions: 1 2 3 4 5 6 7 8 9 10 11 12 13 14 15 16 17 18 19 20 21 22 23 24 25 26 27 28 29 30 31 32 33
000
FTUS43 KLOT 251900 AAB
TAFDPA
TAF AMD
KDPA 251958Z 2520/2618 27008KT P6SM SCT017 SCT250
     FM260000 23004KT P6SM FEW017 SCT250
     FM261300 15004KT P6SM BKN200=

USA.gov is the U.S. government's official web portal to all federal, state and local government web resources and services.